Time;durP1;ratioP1;P1;durP2;ratioP2;P2;SDS_P1;SDS_P2;PMS_P1;PMS_P2;Temp;Humidity;BMP_temperature;BMP_pressure;BME280_temperature;BME280_humidity;BME280_pressure;Samples;Min_cycle;Max_cycle;Signal;HPM_P1;HPM_P2
2022/11/12 00:00:21;;;;;;;18.17;10.77;;;5.90;99.90;;;;;;4962192;29;20113;-80
2022/11/12 00:02:46;;;;;;;19.80;11.60;;;5.90;99.90;;;;;;4963527;29;20027;-80
2022/11/12 00:05:12;;;;;;;18.30;10.77;;;5.90;99.90;;;;;;4966268;28;20086;-80
2022/11/12 00:07:37;;;;;;;21.25;12.50;;;5.90;99.90;;;;;;4971999;28;20041;-80
2022/11/12 00:10:04;;;;;;;20.48;13.18;;;5.90;99.90;;;;;;4962150;29;20082;-80
2022/11/12 00:12:30;;;;;;;20.45;12.65;;;5.90;99.90;;;;;;4961320;28;20039;-79
2022/11/12 00:14:55;;;;;;;19.45;12.63;;;5.80;99.90;;;;;;4965503;29;20046;-79
2022/11/12 00:17:21;;;;;;;19.73;12.75;;;5.80;99.90;;;;;;4961006;29;20028;-79
2022/11/12 00:19:47;;;;;;;20.92;12.05;;;5.80;99.90;;;;;;4957481;29;20094;-78
2022/11/12 00:22:12;;;;;;;18.08;11.45;;;5.80;99.90;;;;;;4965047;29;20396;-79
2022/11/12 00:24:38;;;;;;;17.92;12.18;;;5.70;99.90;;;;;;4968415;28;20030;-79
2022/11/12 00:27:03;;;;;;;18.70;11.75;;;5.70;99.90;;;;;;4978053;28;20019;-79
2022/11/12 00:29:29;;;;;;;19.27;12.77;;;5.70;99.90;;;;;;4982631;28;20551;-79
2022/11/12 00:31:55;;;;;;;19.98;12.55;;;5.70;99.90;;;;;;4981548;28;20387;-79
2022/11/12 00:34:20;;;;;;;24.38;13.98;;;5.70;99.90;;;;;;4979976;28;20029;-79
2022/11/12 00:36:46;;;;;;;21.48;13.85;;;5.60;99.90;;;;;;4961567;29;20381;-79
2022/11/12 00:39:11;;;;;;;18.15;13.00;;;5.70;99.90;;;;;;4958112;29;20337;-79
2022/11/12 00:41:37;;;;;;;18.95;12.23;;;5.60;99.90;;;;;;4958287;29;20035;-79
2022/11/12 00:44:03;;;;;;;20.13;13.18;;;5.60;99.90;;;;;;4958348;28;20539;-79
2022/11/12 00:46:29;;;;;;;19.42;12.40;;;5.50;99.90;;;;;;4976657;28;20041;-79
2022/11/12 00:48:55;;;;;;;20.27;12.82;;;5.50;99.90;;;;;;4968962;28;20093;-79
2022/11/12 00:51:20;;;;;;;23.20;12.73;;;5.50;99.90;;;;;;4969523;28;20034;-79
2022/11/12 00:53:48;;;;;;;25.67;14.00;;;5.50;99.90;;;;;;4977192;28;20031;-79
2022/11/12 00:56:14;;;;;;;21.77;13.60;;;5.50;99.90;;;;;;4977236;28;20031;-79
2022/11/12 00:58:40;;;;;;;21.40;13.90;;;5.50;99.90;;;;;;4973192;28;20022;-79
2022/11/12 01:01:08;;;;;;;21.15;13.55;;;5.50;99.90;;;;;;4953234;28;20543;-79
2022/11/12 01:03:33;;;;;;;21.92;13.15;;;5.50;99.90;;;;;;4982718;28;20026;-79
2022/11/12 01:06:07;;;;;;;22.88;13.48;;;5.50;99.90;;;;;;4960779;28;20043;-78
2022/11/12 01:08:33;;;;;;;20.05;12.80;;;5.40;99.90;;;;;;4941655;29;20031;-79
2022/11/12 01:11:07;;;;;;;18.02;11.95;;;5.50;99.90;;;;;;4958081;29;20030;-80
2022/11/12 01:13:33;;;;;;;17.02;12.35;;;5.50;99.90;;;;;;4940201;29;20031;-80
2022/11/12 01:16:04;;;;;;;16.35;11.80;;;5.50;99.90;;;;;;4947751;28;20033;-80
2022/11/12 01:18:30;;;;;;;21.52;13.18;;;5.50;99.90;;;;;;4977414;28;20121;-80
2022/11/12 01:21:00;;;;;;;17.27;12.00;;;5.50;99.90;;;;;;4976719;28;20050;-79
2022/11/12 01:23:25;;;;;;;20.50;12.73;;;5.50;99.90;;;;;;4976973;28;20027;-78
2022/11/12 01:25:51;;;;;;;18.73;12.90;;;5.50;99.90;;;;;;4972902;28;20183;-79
2022/11/12 01:28:16;;;;;;;17.02;11.20;;;5.50;99.90;;;;;;4957415;29;20019;-78
2022/11/12 01:30:42;;;;;;;17.85;11.25;;;5.50;99.90;;;;;;4957021;29;20476;-79
2022/11/12 01:33:08;;;;;;;18.92;12.52;;;5.50;99.90;;;;;;4961324;29;20042;-79
2022/11/12 01:35:34;;;;;;;19.02;11.88;;;5.50;99.90;;;;;;4944783;29;20075;-80
2022/11/12 01:38:00;;;;;;;17.15;11.35;;;5.50;99.90;;;;;;4960088;28;20027;-79
2022/11/12 01:40:26;;;;;;;18.52;10.93;;;5.50;99.90;;;;;;4960479;29;20059;-79
2022/11/12 01:42:52;;;;;;;16.40;12.70;;;5.50;99.90;;;;;;4960719;28;20031;-79
2022/11/12 01:45:19;;;;;;;16.88;11.13;;;5.50;99.90;;;;;;4960057;29;20114;-80
2022/11/12 01:47:48;;;;;;;15.25;10.60;;;5.60;99.90;;;;;;4959366;28;20036;-80
2022/11/12 01:50:22;;;;;;;15.63;10.65;;;5.60;99.90;;;;;;4960003;29;20037;-80
2022/11/12 01:52:53;;;;;;;17.67;11.07;;;5.60;99.90;;;;;;4941696;29;20034;-80
2022/11/12 01:55:22;;;;;;;14.90;10.73;;;5.60;99.90;;;;;;4959885;29;20035;-79
2022/11/12 01:57:52;;;;;;;16.15;11.38;;;5.50;99.90;;;;;;4970230;28;20034;-79
2022/11/12 02:00:18;;;;;;;15.10;10.35;;;5.50;99.90;;;;;;4978744;28;20365;-79
2022/11/12 02:02:51;;;;;;;13.48;9.70;;;5.40;99.90;;;;;;4979575;28;20078;-79
2022/11/12 02:05:19;;;;;;;15.60;10.13;;;5.50;99.90;;;;;;4966975;28;20027;-80
2022/11/12 02:07:46;;;;;;;13.63;9.55;;;5.40;99.90;;;;;;4941746;29;20031;-79
2022/11/12 02:10:15;;;;;;;15.50;10.82;;;5.40;99.90;;;;;;4959882;29;20089;-81
2022/11/12 02:15:26;;;;;;;14.88;9.50;;;5.40;99.90;;;;;;4959934;29;20034;-81
2022/11/12 02:17:52;;;;;;;13.32;9.65;;;5.40;99.90;;;;;;4964777;28;20027;-80
2022/11/12 02:20:18;;;;;;;14.18;9.65;;;5.40;99.90;;;;;;4979962;28;20054;-80
2022/11/12 02:22:44;;;;;;;11.35;8.93;;;5.50;99.90;;;;;;4980251;28;20449;-81
2022/11/12 02:25:15;;;;;;;14.75;10.80;;;5.50;99.90;;;;;;4981871;28;20023;-78
2022/11/12 02:27:42;;;;;;;14.65;10.18;;;5.50;99.90;;;;;;4984711;28;20498;-81
2022/11/12 02:30:07;;;;;;;13.43;9.43;;;5.50;99.90;;;;;;4988244;28;20027;-80
2022/11/12 02:32:33;;;;;;;16.60;10.13;;;5.50;99.90;;;;;;4999312;28;20051;-79
2022/11/12 02:34:59;;;;;;;12.85;8.45;;;5.50;99.90;;;;;;4999802;28;20043;-79
2022/11/12 02:37:24;;;;;;;13.80;8.50;;;5.40;99.90;;;;;;4978252;29;20035;-80
2022/11/12 02:39:50;;;;;;;12.43;8.68;;;5.40;99.90;;;;;;4977717;28;20469;-80
2022/11/12 02:42:15;;;;;;;10.50;7.18;;;5.30;99.90;;;;;;4973828;29;20047;-79
2022/11/12 02:44:41;;;;;;;10.43;7.90;;;5.20;99.90;;;;;;4975303;29;20062;-79
2022/11/12 02:47:07;;;;;;;10.50;7.97;;;5.20;99.90;;;;;;4967702;29;20572;-80
2022/11/12 02:49:32;;;;;;;11.88;7.28;;;5.10;99.90;;;;;;4961009;28;20480;-80
2022/11/12 02:51:58;;;;;;;11.30;8.57;;;5.00;99.90;;;;;;4961144;29;20027;-80
2022/11/12 02:54:24;;;;;;;10.27;7.45;;;5.00;99.90;;;;;;4962445;28;20027;-78
2022/11/12 02:56:49;;;;;;;11.70;8.30;;;4.90;99.90;;;;;;4961539;29;20468;-79
2022/11/12 02:59:15;;;;;;;10.07;7.68;;;4.90;99.90;;;;;;4967410;28;20027;-79
2022/11/12 03:01:41;;;;;;;11.55;7.78;;;4.90;99.90;;;;;;4969173;28;20032;-79
2022/11/12 03:04:06;;;;;;;10.13;7.80;;;4.80;99.90;;;;;;4975931;28;20036;-79
2022/11/12 03:06:32;;;;;;;10.25;8.00;;;4.80;99.90;;;;;;4963349;29;20101;-79
2022/11/12 03:08:57;;;;;;;11.88;8.57;;;4.80;99.90;;;;;;4964675;28;20511;-79
2022/11/12 03:11:23;;;;;;;10.07;7.72;;;4.80;99.90;;;;;;4986575;28;20062;-79
2022/11/12 03:13:49;;;;;;;10.90;9.15;;;4.70;99.90;;;;;;4974877;28;20120;-80
2022/11/12 03:16:15;;;;;;;10.27;8.07;;;4.70;99.90;;;;;;4985280;28;20022;-80
2022/11/12 03:18:40;;;;;;;9.30;7.95;;;4.60;99.90;;;;;;4991162;28;20034;-80
2022/11/12 03:21:06;;;;;;;13.55;8.30;;;4.60;99.90;;;;;;4979293;28;20039;-80
2022/11/12 03:23:32;;;;;;;10.05;7.13;;;4.50;99.90;;;;;;4981568;28;20085;-79
2022/11/12 03:26:00;;;;;;;11.57;8.00;;;4.50;99.90;;;;;;4982887;28;20027;-79
2022/11/12 03:28:26;;;;;;;12.90;8.27;;;4.40;99.90;;;;;;4983151;28;20106;-80
2022/11/12 03:30:57;;;;;;;9.20;7.38;;;4.40;99.90;;;;;;4972222;28;20058;-79
2022/11/12 03:33:23;;;;;;;11.00;7.35;;;4.40;99.90;;;;;;4963352;29;20031;-79
2022/11/12 03:35:48;;;;;;;9.40;7.13;;;4.30;99.90;;;;;;4963391;29;20032;-79
2022/11/12 03:38:14;;;;;;;8.65;7.03;;;4.30;99.90;;;;;;4963483;28;20031;-79
2022/11/12 03:40:40;;;;;;;8.43;6.40;;;4.30;99.90;;;;;;4969017;28;20027;-80
2022/11/12 03:43:08;;;;;;;8.82;6.97;;;4.30;99.90;;;;;;4981555;28;20035;-79
2022/11/12 03:45:34;;;;;;;10.60;7.05;;;4.20;99.90;;;;;;4963826;28;20030;-79
2022/11/12 03:47:59;;;;;;;8.77;6.68;;;4.20;99.90;;;;;;4981333;28;20019;-80
2022/11/12 03:50:28;;;;;;;8.32;6.97;;;4.10;99.90;;;;;;4980605;28;20038;-79
2022/11/12 03:52:56;;;;;;;13.18;7.10;;;4.10;99.90;;;;;;4956228;28;20042;-80
2022/11/12 03:55:24;;;;;;;8.48;6.30;;;4.00;99.90;;;;;;4972002;28;20028;-80
2022/11/12 03:57:51;;;;;;;10.77;6.75;;;4.00;99.90;;;;;;4961073;29;20027;-80
2022/11/12 04:00:18;;;;;;;7.97;6.38;;;4.00;99.90;;;;;;4961106;29;20086;-80
2022/11/12 04:02:44;;;;;;;7.15;6.00;;;3.90;99.90;;;;;;4944125;29;20027;-79
2022/11/12 04:10:51;;;;;;;6.53;5.22;;;3.80;99.90;;;;;;4934007;29;20520;-81
2022/11/12 04:13:26;;;;;;;7.60;5.28;;;3.80;99.90;;;;;;4971832;28;20078;-80
2022/11/12 04:21:50;;;;;;;7.90;5.82;;;3.80;99.90;;;;;;4982286;28;20037;-80
2022/11/12 04:27:20;;;;;;;6.55;5.25;;;3.80;99.90;;;;;;4982425;28;20604;-81
2022/11/12 04:32:34;;;;;;;7.13;5.65;;;3.80;99.90;;;;;;4974094;28;20038;-81
2022/11/12 04:35:00;;;;;;;6.40;5.38;;;3.80;99.90;;;;;;4960874;29;20030;-81
2022/11/12 04:37:28;;;;;;;7.30;5.75;;;3.80;99.90;;;;;;4960144;29;20090;-80
2022/11/12 04:39:54;;;;;;;7.63;5.90;;;3.80;99.90;;;;;;4960656;29;20078;-80
2022/11/12 04:45:10;;;;;;;9.48;6.85;;;3.70;99.90;;;;;;4979983;28;20030;-80
2022/11/12 04:47:38;;;;;;;7.38;5.82;;;3.70;99.90;;;;;;4953542;28;20035;-80
2022/11/12 04:50:11;;;;;;;7.65;6.18;;;3.70;99.90;;;;;;4959727;28;20032;-80
2022/11/12 04:52:37;;;;;;;8.00;6.47;;;3.70;99.90;;;;;;4978782;28;20114;-80
2022/11/12 04:55:04;;;;;;;8.10;6.15;;;3.70;99.90;;;;;;4979066;28;20054;-80
2022/11/12 04:57:29;;;;;;;9.20;7.00;;;3.70;99.90;;;;;;4978365;28;20025;-79
2022/11/12 04:59:55;;;;;;;12.18;7.13;;;3.70;99.90;;;;;;4978567;28;20047;-79
2022/11/12 05:02:21;;;;;;;15.75;10.52;;;3.80;99.90;;;;;;4932244;29;20035;-79
2022/11/12 05:04:47;;;;;;;13.55;9.70;;;3.80;99.90;;;;;;4957688;29;20114;-79
2022/11/12 05:07:13;;;;;;;15.18;10.65;;;3.90;99.90;;;;;;4958487;28;20063;-79
2022/11/12 05:09:39;;;;;;;14.77;10.25;;;3.90;99.90;;;;;;4941242;29;20038;-78
2022/11/12 05:12:05;;;;;;;15.40;10.15;;;3.90;99.90;;;;;;4959279;28;20023;-79
2022/11/12 05:14:31;;;;;;;15.93;11.00;;;4.00;99.90;;;;;;4960839;28;20031;-79
2022/11/12 05:16:57;;;;;;;17.17;11.48;;;4.00;99.90;;;;;;4957949;29;20476;-80
2022/11/12 05:19:22;;;;;;;15.68;9.65;;;4.00;99.90;;;;;;4940234;29;20547;-80
2022/11/12 05:22:06;;;;;;;12.48;9.60;;;4.10;99.90;;;;;;4956811;29;20027;-80
2022/11/12 05:24:43;;;;;;;13.13;9.75;;;4.20;99.90;;;;;;4956079;29;20038;-80
2022/11/12 05:27:13;;;;;;;15.57;10.88;;;4.20;99.90;;;;;;4958848;29;20027;-80
2022/11/12 05:29:39;;;;;;;14.68;9.88;;;4.20;99.90;;;;;;4961501;29;20038;-81
2022/11/12 05:32:06;;;;;;;11.73;8.77;;;4.20;99.90;;;;;;4952844;29;20409;-80
2022/11/12 05:34:32;;;;;;;13.27;9.60;;;4.30;99.90;;;;;;4969508;29;20023;-80
2022/11/12 05:36:58;;;;;;;10.80;8.65;;;4.30;99.90;;;;;;4967724;29;20396;-80
2022/11/12 05:39:24;;;;;;;10.73;7.25;;;4.40;99.90;;;;;;4955034;28;20475;-81
2022/11/12 05:41:50;;;;;;;13.43;7.32;;;4.40;99.90;;;;;;4981987;28;20105;-80
2022/11/12 05:44:15;;;;;;;12.52;8.32;;;4.40;99.90;;;;;;4975462;28;20024;-79
2022/11/12 05:46:41;;;;;;;9.13;7.85;;;4.40;99.90;;;;;;4960056;29;20098;-79
2022/11/12 05:49:07;;;;;;;13.55;8.77;;;4.40;99.90;;;;;;4961855;28;20030;-80
2022/11/12 05:51:32;;;;;;;12.65;8.93;;;4.40;99.90;;;;;;4972941;29;20035;-80
2022/11/12 05:53:58;;;;;;;13.18;9.02;;;4.30;99.90;;;;;;4975809;29;20019;-79
2022/11/12 05:56:27;;;;;;;14.90;9.75;;;4.30;99.90;;;;;;4976544;29;20031;-80
2022/11/12 05:58:53;;;;;;;13.65;9.80;;;4.40;99.90;;;;;;4965994;29;20059;-79
2022/11/12 06:01:18;;;;;;;14.10;9.15;;;4.30;99.90;;;;;;4968606;28;20027;-80
2022/11/12 06:03:44;;;;;;;13.35;9.60;;;4.30;99.90;;;;;;4971810;29;20037;-80
2022/11/12 06:06:10;;;;;;;12.13;8.65;;;4.20;99.90;;;;;;4973316;28;20027;-78
2022/11/12 06:08:35;;;;;;;15.25;9.93;;;4.30;99.90;;;;;;4977902;28;20062;-80
2022/11/12 06:11:04;;;;;;;16.83;10.05;;;4.20;99.90;;;;;;4991516;28;20058;-80
2022/11/12 06:13:30;;;;;;;11.88;8.90;;;4.20;99.90;;;;;;4991221;28;20084;-80
2022/11/12 06:15:56;;;;;;;14.88;8.73;;;4.20;99.90;;;;;;4974453;28;20082;-79
2022/11/12 06:18:23;;;;;;;9.65;7.90;;;4.20;99.90;;;;;;4963898;28;20024;-80
2022/11/12 06:21:18;;;;;;;12.20;8.43;;;4.20;99.90;;;;;;4975766;28;20019;-79
2022/11/12 06:23:34;;;;;;;9.55;7.60;;;4.30;99.90;;;;;;4966147;29;20167;-80
2022/11/12 06:26:00;;;;;;;11.88;8.93;;;4.30;99.90;;;;;;4965684;29;20061;-80
2022/11/12 06:28:28;;;;;;;14.75;9.30;;;4.30;99.90;;;;;;4970349;29;20110;-80
2022/11/12 06:30:57;;;;;;;13.60;10.00;;;4.30;99.90;;;;;;4974089;29;20007;-79
2022/11/12 06:33:26;;;;;;;13.13;9.68;;;4.30;99.90;;;;;;4970833;28;20094;-80
2022/11/12 06:36:03;;;;;;;17.65;9.65;;;4.30;99.90;;;;;;4965782;29;20023;-78
2022/11/12 06:38:30;;;;;;;9.85;8.13;;;4.30;99.90;;;;;;4948829;29;20027;-79
2022/11/12 06:40:56;;;;;;;10.13;7.57;;;4.30;99.90;;;;;;4967035;29;20030;-80
2022/11/12 06:43:22;;;;;;;10.07;8.40;;;4.30;99.90;;;;;;4967844;29;20117;-79
2022/11/12 06:45:48;;;;;;;11.00;7.43;;;4.30;99.90;;;;;;4970994;29;20015;-79
2022/11/12 06:48:13;;;;;;;12.13;8.23;;;4.30;99.90;;;;;;4981755;28;20015;-79
2022/11/12 06:50:39;;;;;;;12.15;7.57;;;4.50;99.90;;;;;;4982336;29;20035;-80
2022/11/12 06:53:04;;;;;;;11.38;8.25;;;4.50;99.90;;;;;;4982138;28;20027;-78
2022/11/12 06:55:30;;;;;;;12.30;8.95;;;4.60;99.90;;;;;;4979872;28;20142;-79
2022/11/12 06:57:59;;;;;;;12.25;8.80;;;4.70;99.90;;;;;;4995949;28;20054;-78
2022/11/12 07:00:25;;;;;;;10.77;8.35;;;4.70;99.90;;;;;;5000834;28;20034;-79
2022/11/12 07:02:50;;;;;;;12.80;9.23;;;4.80;99.90;;;;;;5000625;28;20011;-80
2022/11/12 07:05:16;;;;;;;10.48;7.88;;;4.80;99.90;;;;;;4983150;28;20039;-82
2022/11/12 07:07:41;;;;;;;13.00;8.75;;;4.90;99.90;;;;;;4980236;28;20032;-80
2022/11/12 07:10:23;;;;;;;11.10;8.10;;;4.90;99.90;;;;;;4979782;29;20038;-81
2022/11/12 07:12:52;;;;;;;8.82;7.30;;;4.90;99.90;;;;;;4981217;28;20054;-79
2022/11/12 07:15:17;;;;;;;11.23;8.18;;;4.90;99.90;;;;;;4980405;28;20055;-79
2022/11/12 07:17:46;;;;;;;9.38;7.55;;;5.00;99.90;;;;;;4964742;28;20016;-81
2022/11/12 07:20:12;;;;;;;11.27;8.07;;;5.00;99.90;;;;;;4987248;28;20034;-79
2022/11/12 07:22:38;;;;;;;9.40;7.43;;;5.10;99.90;;;;;;5000071;28;20031;-80
2022/11/12 07:25:04;;;;;;;11.93;7.22;;;5.20;99.90;;;;;;4999843;28;20017;-79
2022/11/12 07:27:30;;;;;;;8.80;7.05;;;5.10;99.90;;;;;;5000086;28;20042;-80
2022/11/12 07:29:56;;;;;;;10.38;7.60;;;5.20;99.90;;;;;;5000959;28;20038;-79
2022/11/12 07:32:21;;;;;;;9.48;7.00;;;5.30;99.90;;;;;;4985891;28;20031;-79
2022/11/12 07:34:47;;;;;;;6.82;6.00;;;5.40;99.90;;;;;;4981003;28;20067;-79
2022/11/12 07:37:12;;;;;;;8.75;6.82;;;5.40;99.90;;;;;;4999309;28;20026;-80
2022/11/12 07:39:38;;;;;;;7.55;6.65;;;5.40;99.90;;;;;;5000431;28;20030;-79
2022/11/12 07:42:04;;;;;;;7.68;6.13;;;5.50;99.90;;;;;;5000382;28;20131;-80
2022/11/12 07:44:29;;;;;;;7.68;6.45;;;5.50;99.90;;;;;;5000243;28;20011;-78
2022/11/12 07:46:55;;;;;;;6.15;5.55;;;5.60;99.90;;;;;;4981246;28;20022;-78
2022/11/12 07:49:20;;;;;;;7.05;5.53;;;5.50;99.90;;;;;;5000159;28;20062;-79
2022/11/12 07:51:46;;;;;;;5.57;4.63;;;5.50;99.90;;;;;;4999932;28;20027;-78
2022/11/12 07:54:12;;;;;;;5.00;4.50;;;5.40;99.90;;;;;;4997125;28;20200;-80
2022/11/12 07:56:38;;;;;;;5.57;4.50;;;5.40;99.90;;;;;;4981393;28;20082;-79
2022/11/12 07:59:04;;;;;;;4.75;4.25;;;5.40;99.90;;;;;;4981116;28;20031;-80
2022/11/12 08:01:32;;;;;;;4.20;3.80;;;5.50;99.90;;;;;;4981645;28;20016;-80
2022/11/12 08:03:59;;;;;;;4.78;3.90;;;5.50;99.90;;;;;;4988403;28;20054;-80
2022/11/12 08:06:26;;;;;;;4.47;4.07;;;5.50;99.90;;;;;;5000137;28;20086;-80
2022/11/12 08:08:53;;;;;;;3.70;3.15;;;5.50;99.90;;;;;;5000343;28;20039;-78
2022/11/12 08:11:18;;;;;;;5.63;3.33;;;5.50;99.90;;;;;;4996921;28;20109;-79
2022/11/12 08:13:44;;;;;;;4.05;3.60;;;5.60;99.90;;;;;;4998891;28;20053;-80
2022/11/12 08:16:10;;;;;;;4.22;3.83;;;5.60;99.90;;;;;;4999353;28;20022;-79
2022/11/12 08:18:35;;;;;;;4.05;3.65;;;5.70;99.90;;;;;;4998805;28;20075;-79
2022/11/12 08:21:06;;;;;;;2.92;2.67;;;5.70;99.90;;;;;;4999986;28;20046;-78
2022/11/12 08:23:35;;;;;;;3.83;3.40;;;5.90;99.90;;;;;;4999758;28;20027;-78
2022/11/12 08:26:03;;;;;;;3.80;3.45;;;6.00;99.90;;;;;;4998103;28;20027;-81
2022/11/12 08:28:35;;;;;;;3.30;2.78;;;6.10;99.90;;;;;;4978009;28;20035;-81
2022/11/12 08:31:06;;;;;;;3.20;2.60;;;6.20;99.90;;;;;;4999117;28;20079;-80
2022/11/12 08:33:33;;;;;;;3.63;3.28;;;6.40;99.90;;;;;;4998448;28;20055;-79
2022/11/12 08:36:02;;;;;;;2.78;2.58;;;6.60;99.90;;;;;;4998744;28;20019;-79
2022/11/12 08:38:28;;;;;;;3.30;2.83;;;6.90;99.90;;;;;;4980367;28;20126;-80
2022/11/12 08:40:54;;;;;;;3.03;2.72;;;7.10;99.90;;;;;;4968421;29;20067;-80
2022/11/12 08:43:19;;;;;;;3.10;2.80;;;7.30;99.90;;;;;;4942975;29;20032;-80
2022/11/12 08:45:47;;;;;;;3.30;2.92;;;7.50;99.90;;;;;;4945726;29;20047;-81
2022/11/12 08:48:39;;;;;;;3.75;3.33;;;7.60;99.90;;;;;;4978145;29;20030;-79
2022/11/12 08:51:05;;;;;;;5.22;3.05;;;7.50;99.90;;;;;;4974307;29;20059;-79
2022/11/12 08:53:33;;;;;;;3.28;2.97;;;7.40;99.90;;;;;;4961371;29;20038;-80
2022/11/12 08:55:59;;;;;;;3.03;2.83;;;7.50;99.90;;;;;;4994225;28;20027;-78
2022/11/12 08:58:25;;;;;;;3.08;2.78;;;7.50;99.90;;;;;;4988590;28;20049;-78
2022/11/12 09:00:52;;;;;;;5.15;3.70;;;7.60;99.90;;;;;;4999351;28;20090;-79
2022/11/12 09:03:20;;;;;;;5.00;3.60;;;7.80;99.90;;;;;;4998730;28;20011;-80
2022/11/12 09:05:47;;;;;;;3.40;3.08;;;8.00;99.90;;;;;;4998378;28;20051;-79
2022/11/12 09:08:19;;;;;;;3.35;3.03;;;8.10;99.90;;;;;;4998692;28;20027;-78
2022/11/12 09:10:45;;;;;;;3.22;2.92;;;8.30;99.50;;;;;;4998937;28;20019;-79
2022/11/12 09:13:12;;;;;;;3.33;3.03;;;8.50;99.00;;;;;;4971672;28;20051;-80
2022/11/12 09:15:38;;;;;;;2.90;2.60;;;8.80;98.60;;;;;;4979139;28;20091;-79
2022/11/12 09:18:06;;;;;;;2.50;2.28;;;9.10;97.70;;;;;;4978905;28;20239;-79
2022/11/12 09:20:32;;;;;;;3.38;2.88;;;9.50;97.00;;;;;;4979273;28;20046;-79
2022/11/12 09:23:03;;;;;;;3.17;2.92;;;9.60;96.30;;;;;;4979179;29;20047;-79
2022/11/12 09:25:28;;;;;;;3.42;2.85;;;9.70;95.90;;;;;;4979181;28;20042;-78
2022/11/12 09:27:54;;;;;;;3.28;2.65;;;10.10;95.60;;;;;;4979023;28;20024;-78
2022/11/12 09:30:20;;;;;;;3.35;2.90;;;10.50;94.20;;;;;;4989477;28;20023;-80
2022/11/12 09:32:46;;;;;;;4.78;3.40;;;10.80;92.80;;;;;;4983405;28;20031;-80
2022/11/12 09:35:11;;;;;;;4.45;3.10;;;10.70;92.20;;;;;;4978474;28;20142;-80
2022/11/12 09:37:37;;;;;;;5.82;3.38;;;10.50;92.40;;;;;;4978323;28;20015;-80
2022/11/12 09:40:04;;;;;;;4.40;3.22;;;10.30;92.70;;;;;;4962085;28;20019;-80
2022/11/12 09:42:32;;;;;;;4.45;3.35;;;10.30;92.80;;;;;;4962669;29;20488;-80
2022/11/12 09:45:13;;;;;;;3.47;3.10;;;10.10;92.70;;;;;;4979400;29;20015;-80
2022/11/12 09:47:48;;;;;;;3.72;3.22;;;10.10;93.00;;;;;;4978278;29;20019;-80
2022/11/12 09:50:41;;;;;;;3.60;3.30;;;10.30;93.10;;;;;;4984186;28;20018;-80
2022/11/12 09:53:13;;;;;;;3.45;3.15;;;10.60;92.60;;;;;;4966948;28;20007;-80
2022/11/12 09:55:42;;;;;;;3.60;3.30;;;10.70;92.30;;;;;;4993290;28;20026;-79
2022/11/12 09:58:12;;;;;;;7.45;4.45;;;10.90;92.10;;;;;;4996953;28;20041;-79
2022/11/12 10:00:49;;;;;;;7.03;4.90;;;10.60;91.90;;;;;;4979996;28;20042;-79
2022/11/12 10:03:42;;;;;;;6.40;4.78;;;10.40;92.30;;;;;;4992238;28;20007;-79
2022/11/12 10:06:14;;;;;;;7.68;5.47;;;10.10;93.10;;;;;;4989027;28;20038;-79
2022/11/12 10:08:55;;;;;;;7.90;6.10;;;9.90;94.00;;;;;;4982471;28;20008;-77
2022/11/12 10:14:57;;;;;;;6.63;5.35;;;9.80;94.90;;;;;;4971750;28;20055;-79
2022/11/12 10:17:28;;;;;;;5.97;5.40;;;9.80;95.30;;;;;;4952392;28;20047;-79
2022/11/12 10:19:57;;;;;;;7.90;5.65;;;9.80;95.30;;;;;;4977294;29;20038;-79
2022/11/12 10:22:26;;;;;;;6.70;5.13;;;9.70;95.50;;;;;;4990428;28;20011;-78
2022/11/12 10:24:53;;;;;;;5.85;4.97;;;9.80;95.70;;;;;;4984039;28;20020;-79
2022/11/12 10:27:21;;;;;;;8.60;5.93;;;9.70;95.70;;;;;;4978017;28;20031;-79
2022/11/12 10:29:58;;;;;;;8.05;6.10;;;9.70;95.90;;;;;;4978068;28;20015;-79
2022/11/12 10:32:24;;;;;;;7.95;6.15;;;9.60;96.20;;;;;;4978018;28;20107;-79
2022/11/12 10:34:50;;;;;;;6.70;6.05;;;9.60;96.40;;;;;;4977564;28;20042;-79
2022/11/12 10:37:35;;;;;;;8.10;7.30;;;9.60;96.60;;;;;;4977397;28;20043;-79
2022/11/12 10:40:29;;;;;;;9.05;7.45;;;9.60;96.50;;;;;;4980923;28;20019;-81
2022/11/12 10:43:16;;;;;;;10.00;7.38;;;9.70;96.50;;;;;;4960776;28;20099;-79
2022/11/12 10:45:44;;;;;;;10.18;7.93;;;9.70;96.60;;;;;;4996584;28;20054;-79
2022/11/12 10:48:31;;;;;;;9.77;7.53;;;9.80;96.90;;;;;;4959458;28;20019;-79
2022/11/12 10:50:57;;;;;;;9.65;8.32;;;9.80;96.60;;;;;;4965293;28;20039;-78
2022/11/12 10:53:36;;;;;;;9.25;8.30;;;9.80;96.10;;;;;;4999701;28;20078;-80
2022/11/12 10:56:20;;;;;;;9.30;7.35;;;9.80;96.40;;;;;;4998567;28;20026;-80
2022/11/12 10:59:05;;;;;;;9.02;7.80;;;9.70;96.60;;;;;;5000536;28;20114;-79
2022/11/12 11:01:31;;;;;;;9.77;8.40;;;9.70;96.70;;;;;;4999852;28;20025;-79
2022/11/12 11:03:57;;;;;;;9.43;8.45;;;9.70;96.80;;;;;;4990386;28;20043;-80
2022/11/12 11:06:27;;;;;;;10.02;8.50;;;9.80;97.00;;;;;;4979999;28;20019;-79
2022/11/12 11:09:13;;;;;;;10.98;8.63;;;9.80;96.70;;;;;;4981096;29;20027;-80
2022/11/12 11:11:49;;;;;;;12.20;8.98;;;9.80;96.50;;;;;;4974945;28;20034;-80
2022/11/12 11:14:21;;;;;;;9.88;8.85;;;9.80;96.30;;;;;;4960854;29;20043;-79
2022/11/12 11:16:58;;;;;;;12.13;9.73;;;9.80;96.30;;;;;;4980091;29;20037;-80
2022/11/12 11:19:39;;;;;;;14.63;9.35;;;9.70;96.40;;;;;;4980778;28;20050;-79
2022/11/12 11:22:48;;;;;;;9.60;8.60;;;9.70;96.50;;;;;;4967524;29;20262;-81
2022/11/12 11:25:28;;;;;;;11.77;8.50;;;9.50;97.00;;;;;;4962400;29;20047;-80
2022/11/12 11:28:07;;;;;;;10.25;8.45;;;9.50;97.50;;;;;;4991158;28;20035;-79
2022/11/12 11:30:37;;;;;;;10.40;9.18;;;9.60;96.70;;;;;;4963929;29;20024;-79
2022/11/12 11:33:18;;;;;;;9.40;8.40;;;9.60;96.60;;;;;;4999699;28;20007;-79
2022/11/12 11:36:34;;;;;;;9.32;8.25;;;9.70;97.20;;;;;;4972025;28;20126;-80
2022/11/12 11:39:13;;;;;;;9.85;8.35;;;9.70;96.70;;;;;;4903182;29;20052;-80
2022/11/12 11:42:03;;;;;;;10.45;8.48;;;9.60;97.30;;;;;;4969103;28;20047;-80
2022/11/12 11:44:58;;;;;;;10.18;8.38;;;9.70;96.90;;;;;;4986734;28;20304;-80
2022/11/12 11:48:16;;;;;;;10.07;8.57;;;9.80;97.00;;;;;;4989066;28;20023;-79
2022/11/12 11:50:57;;;;;;;8.55;7.75;;;9.80;96.60;;;;;;4917663;29;20434;-79
2022/11/12 11:53:36;;;;;;;12.50;8.43;;;9.80;96.60;;;;;;4897448;29;20084;-79
2022/11/12 11:56:10;;;;;;;9.07;7.43;;;9.80;96.80;;;;;;4964685;28;20042;-78
2022/11/12 11:58:41;;;;;;;12.45;8.07;;;9.80;96.90;;;;;;4997918;28;20019;-78
2022/11/12 12:01:29;;;;;;;11.53;7.97;;;9.90;96.50;;;;;;4991954;28;20073;-79
2022/11/12 12:03:57;;;;;;;11.27;8.93;;;9.80;96.50;;;;;;4976405;28;20270;-80
2022/11/12 12:06:26;;;;;;;10.52;8.27;;;9.80;96.80;;;;;;4990123;28;20033;-80
2022/11/12 12:09:11;;;;;;;8.48;7.57;;;9.60;96.60;;;;;;4970622;28;20026;-80
2022/11/12 12:11:53;;;;;;;8.55;7.68;;;9.50;97.20;;;;;;4963250;28;20053;-79
2022/11/12 12:14:48;;;;;;;8.50;7.30;;;9.50;97.40;;;;;;4959503;28;20019;-79
2022/11/12 12:17:44;;;;;;;8.82;7.90;;;9.50;97.70;;;;;;4966355;28;20051;-79
2022/11/12 12:20:23;;;;;;;11.07;8.02;;;9.50;97.70;;;;;;4963090;28;20010;-80
2022/11/12 12:23:00;;;;;;;8.23;6.97;;;9.50;97.40;;;;;;4971528;28;20034;-79
2022/11/12 12:25:33;;;;;;;9.00;7.65;;;9.50;97.00;;;;;;4953881;29;20094;-79
2022/11/12 12:28:01;;;;;;;9.07;7.57;;;9.40;97.20;;;;;;4965029;29;20019;-79
2022/11/12 12:30:30;;;;;;;8.95;7.28;;;9.40;97.70;;;;;;4966485;29;20173;-79
2022/11/12 12:33:22;;;;;;;12.77;7.85;;;9.50;98.20;;;;;;4968801;29;20110;-79
2022/11/12 12:36:09;;;;;;;8.25;7.43;;;9.60;97.70;;;;;;4963919;29;20053;-80
2022/11/12 12:38:56;;;;;;;9.95;7.47;;;9.70;97.60;;;;;;4964651;29;20027;-80
2022/11/12 12:41:36;;;;;;;9.88;7.43;;;9.70;97.70;;;;;;4964299;28;20051;-80
2022/11/12 12:44:08;;;;;;;9.48;7.65;;;9.80;96.90;;;;;;4957488;29;20477;-80
2022/11/12 12:46:43;;;;;;;11.82;8.02;;;9.80;97.40;;;;;;4980616;28;20126;-80
2022/11/12 12:49:16;;;;;;;10.82;8.10;;;9.70;97.50;;;;;;4980973;28;20034;-80
2022/11/12 12:51:41;;;;;;;10.90;7.90;;;9.60;97.70;;;;;;4969470;28;20487;-80
2022/11/12 12:54:41;;;;;;;11.27;8.70;;;9.50;97.90;;;;;;4961003;28;20085;-80
2022/11/12 12:57:26;;;;;;;10.70;8.02;;;9.50;98.30;;;;;;4962181;29;20084;-80
2022/11/12 13:00:29;;;;;;;11.77;8.15;;;9.40;98.20;;;;;;4961115;29;20275;-80
2022/11/12 13:02:55;;;;;;;10.63;7.63;;;9.40;98.60;;;;;;4961437;29;20035;-80
2022/11/12 13:05:41;;;;;;;11.10;8.15;;;9.50;98.70;;;;;;4960483;28;20031;-80
2022/11/12 13:08:12;;;;;;;9.25;8.27;;;9.40;98.40;;;;;;4960106;29;20121;-78
2022/11/12 13:10:37;;;;;;;8.70;7.50;;;9.40;98.70;;;;;;4960558;28;20035;-80
2022/11/12 13:13:22;;;;;;;9.98;8.00;;;9.30;98.90;;;;;;4964436;28;20091;-80
2022/11/12 13:15:58;;;;;;;9.82;7.88;;;9.30;99.00;;;;;;4952162;28;20384;-79
2022/11/12 13:18:39;;;;;;;9.60;7.82;;;9.30;99.10;;;;;;4979074;28;20025;-79
2022/11/12 13:21:16;;;;;;;8.43;7.20;;;9.20;99.00;;;;;;4956949;29;20035;-79
2022/11/12 13:24:11;;;;;;;10.38;7.75;;;9.20;99.20;;;;;;4971037;28;20032;-79
2022/11/12 13:26:49;;;;;;;10.68;7.93;;;9.10;99.80;;;;;;4974485;28;20043;-80
2022/11/12 13:29:24;;;;;;;8.48;7.10;;;9.10;99.60;;;;;;4987104;28;20011;-78